createdAt,value
2018-12-27T00:00:01.465Z,46.72
2018-12-27T00:02:29.675Z,46.52
2018-12-27T00:04:57.837Z,46.58
2018-12-27T00:07:26.046Z,46.92
2018-12-27T00:09:54.233Z,46.98
2018-12-27T00:12:22.393Z,46.95
2018-12-27T00:14:50.526Z,47.20
2018-12-27T00:17:18.715Z,46.64
2018-12-27T00:19:46.921Z,46.71
2018-12-27T00:22:15.087Z,46.77
2018-12-27T00:24:43.291Z,47.22
2018-12-27T00:27:11.453Z,47.37
2018-12-27T00:29:39.601Z,46.90
2018-12-27T00:32:07.965Z,47.08
2018-12-27T00:34:36.335Z,47.09
2018-12-27T00:37:04.654Z,47.46
2018-12-27T00:39:33.048Z,47.21
2018-12-27T00:42:01.421Z,47.34
2018-12-27T00:44:29.822Z,47.48
2018-12-27T00:46:58.146Z,47.41
2018-12-27T00:49:26.550Z,47.16
2018-12-27T00:51:54.874Z,47.29
2018-12-27T00:54:23.374Z,47.41
2018-12-27T00:56:51.670Z,47.35
2018-12-27T00:59:20.020Z,47.24
2018-12-27T01:01:48.454Z,47.35
2018-12-27T01:04:16.780Z,47.47
2018-12-27T01:06:45.130Z,47.42
2018-12-27T01:09:13.541Z,47.41
2018-12-27T01:11:41.871Z,47.52
2018-12-27T01:14:10.177Z,47.51
2018-12-27T01:16:38.571Z,47.72
2018-12-27T01:19:06.946Z,47.53
2018-12-27T01:21:35.251Z,47.67
2018-12-27T01:24:03.591Z,47.72
2018-12-27T01:26:31.939Z,47.64
2018-12-27T01:29:00.340Z,47.69
2018-12-27T01:31:28.690Z,47.84
2018-12-27T01:33:57.045Z,47.82
2018-12-27T01:36:25.398Z,47.85
2018-12-27T01:38:53.760Z,47.93
2018-12-27T01:41:22.179Z,47.78
2018-12-27T01:43:50.600Z,47.83
2018-12-27T01:46:18.972Z,47.90
2018-12-27T01:48:47.280Z,47.93
2018-12-27T01:51:15.621Z,47.77
2018-12-27T01:53:43.968Z,48.00
2018-12-27T01:56:12.343Z,48.00
2018-12-27T01:58:40.661Z,47.97
2018-12-27T02:01:09.134Z,47.96
2018-12-27T02:03:37.513Z,47.91
2018-12-27T02:06:05.873Z,47.93
2018-12-27T02:08:34.257Z,47.96
2018-12-27T02:11:02.584Z,48.03
2018-12-27T02:13:30.957Z,48.02
2018-12-27T02:15:59.297Z,47.97
2018-12-27T02:18:27.638Z,48.06
2018-12-27T02:20:55.994Z,48.15
2018-12-27T02:23:24.364Z,48.25
2018-12-27T02:25:52.721Z,48.30
2018-12-27T02:28:21.048Z,48.21
2018-12-27T02:30:49.387Z,48.22
2018-12-27T02:33:17.696Z,48.18
2018-12-27T02:35:46.023Z,48.31
2018-12-27T02:38:14.378Z,48.32
2018-12-27T02:40:42.702Z,48.17
2018-12-27T02:43:11.060Z,48.04
2018-12-27T02:45:39.397Z,48.17
2018-12-27T02:48:07.767Z,48.12
2018-12-27T02:50:36.098Z,48.29
2018-12-27T02:53:04.470Z,48.31
2018-12-27T02:55:32.764Z,48.38
2018-12-27T02:58:01.094Z,48.33
2018-12-27T03:00:29.427Z,48.44
2018-12-27T03:02:57.709Z,48.55
2018-12-27T03:05:26.056Z,48.66
2018-12-27T03:07:54.414Z,48.44
2018-12-27T03:10:22.755Z,48.58
2018-12-27T03:12:51.116Z,48.59
2018-12-27T03:15:19.504Z,48.58
2018-12-27T03:17:47.910Z,48.68
2018-12-27T03:20:16.369Z,48.60
2018-12-27T03:22:44.665Z,48.59
2018-12-27T03:25:13.030Z,48.53
2018-12-27T03:27:41.345Z,48.74
2018-12-27T03:30:09.695Z,48.94
2018-12-27T03:32:38.014Z,48.87
2018-12-27T03:35:06.380Z,48.76
2018-12-27T03:37:34.739Z,48.74
2018-12-27T03:40:03.036Z,48.96
2018-12-27T03:42:31.375Z,48.99
2018-12-27T03:44:59.701Z,48.89
2018-12-27T03:47:28.048Z,49.27
2018-12-27T03:49:56.370Z,49.67
2018-12-27T03:52:24.719Z,48.93
2018-12-27T03:54:53.120Z,49.66
2018-12-27T03:57:21.483Z,49.39
2018-12-27T03:59:49.888Z,49.65
2018-12-27T04:02:18.245Z,49.91
2018-12-27T04:04:46.602Z,49.84
2018-12-27T04:07:14.944Z,49.78
2018-12-27T04:09:43.263Z,49.97
2018-12-27T04:12:11.614Z,49.90
2018-12-27T04:14:39.990Z,49.86
2018-12-27T04:17:08.131Z,50.10
2018-12-27T04:19:36.314Z,50.06
2018-12-27T04:22:04.497Z,49.81
2018-12-27T04:24:32.681Z,49.90
2018-12-27T04:27:00.826Z,50.01
2018-12-27T04:29:29.015Z,49.92
2018-12-27T04:31:57.207Z,49.79
2018-12-27T04:34:25.395Z,50.01
2018-12-27T04:36:53.801Z,50.10
2018-12-27T04:39:22.026Z,50.03
2018-12-27T04:41:50.231Z,50.23
2018-12-27T04:44:18.477Z,50.30
2018-12-27T04:46:46.604Z,50.39
2018-12-27T04:49:14.749Z,50.59
2018-12-27T04:51:42.914Z,50.48
2018-12-27T04:54:11.123Z,50.53
2018-12-27T04:56:39.288Z,50.26
2018-12-27T04:59:07.500Z,50.40
2018-12-27T05:01:35.662Z,50.44
2018-12-27T05:04:03.793Z,50.26
2018-12-27T05:06:31.973Z,50.25
2018-12-27T05:09:00.093Z,50.25
2018-12-27T05:11:28.301Z,50.19
2018-12-27T05:13:58.184Z,50.14
2018-12-27T05:16:26.499Z,50.17
2018-12-27T05:18:54.678Z,50.23
2018-12-27T05:21:22.848Z,50.05
2018-12-27T05:23:51.043Z,50.14
2018-12-27T05:26:19.264Z,50.23
2018-12-27T05:28:47.430Z,50.13
2018-12-27T05:31:15.638Z,50.19
2018-12-27T05:33:43.816Z,50.29
2018-12-27T05:36:11.983Z,50.28
2018-12-27T05:38:40.162Z,50.38
2018-12-27T05:41:08.292Z,50.38
2018-12-27T05:43:36.515Z,50.32
2018-12-27T05:46:04.680Z,50.25
2018-12-27T05:48:32.851Z,50.42
2018-12-27T05:51:01.002Z,50.57
2018-12-27T05:53:29.139Z,50.66
2018-12-27T05:55:57.334Z,50.76
2018-12-27T05:58:25.486Z,50.85
2018-12-27T06:00:53.624Z,50.99
2018-12-27T06:03:21.773Z,50.90
2018-12-27T06:05:49.936Z,51.14
2018-12-27T06:08:18.094Z,51.41
2018-12-27T06:10:46.253Z,51.16
2018-12-27T06:13:14.423Z,51.16
2018-12-27T06:15:42.662Z,51.25
2018-12-27T06:18:10.791Z,51.27
2018-12-27T06:20:38.999Z,51.25
2018-12-27T06:23:07.174Z,51.44
2018-12-27T06:25:35.333Z,51.34
2018-12-27T06:28:03.520Z,51.35
2018-12-27T06:30:31.661Z,51.32
2018-12-27T06:32:59.839Z,51.52
2018-12-27T06:35:28.014Z,51.63
2018-12-27T06:37:56.222Z,51.53
2018-12-27T06:40:24.393Z,51.63
2018-12-27T06:42:52.575Z,51.63
2018-12-27T06:45:20.721Z,51.75
2018-12-27T06:47:48.888Z,51.54
2018-12-27T06:50:17.099Z,51.61
2018-12-27T06:52:45.444Z,51.71
2018-12-27T06:55:13.652Z,51.73
2018-12-27T06:57:41.810Z,51.61
2018-12-27T07:00:09.951Z,51.88
2018-12-27T07:02:38.217Z,51.71
2018-12-27T07:05:06.521Z,51.63
2018-12-27T07:07:34.673Z,51.77
2018-12-27T07:10:02.899Z,51.68
2018-12-27T07:12:31.014Z,51.69
2018-12-27T07:14:59.231Z,51.68
2018-12-27T07:17:27.336Z,51.61
2018-12-27T07:19:55.594Z,51.57
2018-12-27T07:22:23.824Z,51.64
2018-12-27T07:24:52.023Z,51.54
2018-12-27T07:27:20.228Z,51.95
2018-12-27T07:29:48.402Z,50.62
2018-12-27T07:32:16.617Z,49.96
2018-12-27T07:34:44.886Z,49.79
2018-12-27T07:37:13.119Z,51.54
2018-12-27T07:39:41.320Z,51.89
2018-12-27T07:42:09.609Z,52.41
2018-12-27T07:44:37.807Z,52.21
2018-12-27T07:47:06.122Z,51.60
2018-12-27T07:49:34.373Z,51.25
2018-12-27T07:52:02.612Z,51.75
2018-12-27T07:54:30.775Z,51.45
2018-12-27T07:56:58.991Z,51.72
2018-12-27T07:59:27.190Z,51.55
2018-12-27T08:01:55.398Z,51.44
2018-12-27T08:04:23.599Z,51.34
2018-12-27T08:06:51.890Z,51.25
2018-12-27T08:09:20.168Z,51.37
2018-12-27T08:11:48.423Z,51.12
2018-12-27T08:14:16.619Z,51.08
2018-12-27T08:16:44.877Z,51.01
2018-12-27T08:19:13.216Z,50.80
2018-12-27T08:21:41.431Z,50.81
2018-12-27T08:24:09.701Z,50.58
2018-12-27T08:26:37.873Z,50.63
2018-12-27T08:29:06.107Z,50.54
2018-12-27T08:31:34.291Z,50.52
2018-12-27T08:34:02.519Z,50.41
2018-12-27T08:36:30.764Z,50.21
2018-12-27T08:38:59.016Z,50.14
2018-12-27T08:41:27.209Z,50.20
2018-12-27T08:43:55.443Z,50.28
2018-12-27T08:46:23.754Z,50.19
2018-12-27T08:48:51.921Z,50.16
2018-12-27T08:51:20.230Z,50.11
2018-12-27T08:53:48.457Z,49.95
2018-12-27T08:56:16.698Z,50.05
2018-12-27T08:58:44.913Z,49.79
2018-12-27T09:01:13.101Z,49.88
2018-12-27T09:03:41.300Z,49.75
2018-12-27T09:06:09.533Z,49.72
2018-12-27T09:08:37.696Z,49.71
2018-12-27T09:11:05.932Z,49.74
2018-12-27T09:13:34.182Z,49.71
2018-12-27T09:16:02.375Z,49.67
2018-12-27T09:18:30.580Z,49.49
2018-12-27T09:20:58.779Z,49.65
2018-12-27T09:23:27.028Z,49.65
2018-12-27T09:25:55.210Z,49.55
2018-12-27T09:28:23.406Z,49.43
2018-12-27T09:30:51.666Z,49.50
2018-12-27T09:33:19.891Z,49.45
2018-12-27T09:35:48.089Z,49.43
2018-12-27T09:38:16.421Z,49.28
2018-12-27T09:40:44.597Z,49.31
2018-12-27T09:43:12.826Z,49.27
2018-12-27T09:45:41.043Z,49.27
2018-12-27T09:48:09.274Z,49.18
2018-12-27T09:50:37.509Z,48.96
2018-12-27T09:53:05.735Z,48.85
2018-12-27T09:55:33.930Z,49.13
2018-12-27T09:58:02.162Z,49.07
2018-12-27T10:00:30.361Z,49.05
2018-12-27T10:02:58.634Z,48.98
2018-12-27T10:05:33.586Z,49.03
2018-12-27T10:07:57.576Z,49.03
2018-12-27T10:10:25.897Z,48.95
2018-12-27T10:12:54.142Z,48.96
2018-12-27T10:15:22.357Z,48.77
2018-12-27T10:17:50.545Z,48.65
2018-12-27T10:20:18.774Z,48.74
2018-12-27T10:22:47.024Z,48.75
2018-12-27T10:25:15.203Z,48.58
2018-12-27T10:27:43.367Z,48.83
2018-12-27T10:30:11.591Z,48.89
2018-12-27T10:32:39.796Z,48.91
2018-12-27T10:35:08.054Z,48.89
2018-12-27T10:37:36.285Z,48.77
2018-12-27T10:40:05.883Z,48.84
2018-12-27T10:42:34.022Z,48.83
2018-12-27T10:45:02.237Z,48.89
2018-12-27T10:47:30.489Z,48.95
2018-12-27T10:49:58.702Z,48.96
2018-12-27T10:52:26.916Z,49.06
2018-12-27T10:54:55.082Z,48.86
2018-12-27T10:57:23.290Z,49.02
2018-12-27T10:59:51.487Z,48.90
2018-12-27T11:02:19.688Z,49.05
2018-12-27T11:04:47.914Z,49.06
2018-12-27T11:07:16.151Z,49.09
2018-12-27T11:09:44.374Z,48.18
2018-12-27T11:12:12.554Z,48.43
2018-12-27T11:14:40.749Z,48.67
2018-12-27T11:17:09.004Z,48.53
2018-12-27T11:19:37.216Z,48.67
2018-12-27T11:22:05.450Z,48.66
2018-12-27T11:24:33.644Z,48.72
2018-12-27T11:27:01.880Z,48.78
2018-12-27T11:29:30.042Z,48.62
2018-12-27T11:31:58.242Z,48.33
2018-12-27T11:34:26.465Z,48.33
2018-12-27T11:36:54.689Z,48.44
2018-12-27T11:39:22.901Z,48.14
2018-12-27T11:41:51.173Z,48.26
2018-12-27T11:44:19.382Z,48.06
2018-12-27T11:46:47.586Z,48.26
2018-12-27T11:49:15.817Z,48.05
2018-12-27T11:51:44.006Z,48.07
2018-12-27T11:54:12.234Z,48.12
2018-12-27T11:56:40.449Z,48.15
2018-12-27T11:59:08.659Z,48.15
2018-12-27T12:01:36.914Z,48.11
2018-12-27T12:04:05.141Z,48.08
2018-12-27T12:06:33.358Z,47.91
2018-12-27T12:09:01.606Z,47.98
2018-12-27T12:11:29.784Z,48.00
2018-12-27T12:13:57.968Z,48.03
2018-12-27T12:16:26.194Z,48.25
2018-12-27T12:18:54.389Z,48.21
2018-12-27T12:21:22.651Z,48.15
2018-12-27T12:23:50.840Z,48.37
2018-12-27T12:26:19.028Z,48.44
2018-12-27T12:28:47.258Z,48.26
2018-12-27T12:31:15.436Z,48.44
2018-12-27T12:33:43.681Z,48.50
2018-12-27T12:36:11.927Z,48.40
2018-12-27T12:38:40.149Z,48.46
2018-12-27T12:41:08.409Z,48.37
2018-12-27T12:43:36.723Z,48.49
2018-12-27T12:46:04.931Z,48.34
2018-12-27T12:48:33.145Z,48.42
2018-12-27T12:51:01.372Z,48.36
2018-12-27T12:53:29.591Z,48.22
2018-12-27T12:55:57.891Z,48.39
2018-12-27T12:58:26.158Z,48.42
2018-12-27T13:00:54.438Z,48.41
2018-12-27T13:03:22.638Z,48.46
2018-12-27T13:05:50.855Z,48.40
2018-12-27T13:08:19.077Z,48.40
2018-12-27T13:10:47.287Z,48.35
2018-12-27T13:13:15.464Z,48.50
2018-12-27T13:15:43.711Z,48.71
2018-12-27T13:18:12.006Z,48.75
2018-12-27T13:20:40.255Z,48.89
2018-12-27T13:23:08.549Z,48.68
2018-12-27T13:25:38.557Z,48.83
2018-12-27T13:28:06.794Z,48.81
2018-12-27T13:30:35.012Z,48.88
2018-12-27T13:33:04.082Z,48.69
2018-12-27T13:35:32.365Z,48.80
2018-12-27T13:38:00.570Z,48.79
2018-12-27T13:40:29.501Z,48.73
2018-12-27T13:42:58.442Z,48.71
2018-12-27T13:45:28.956Z,48.75
2018-12-27T13:47:57.291Z,48.84
2018-12-27T13:50:25.652Z,48.77
2018-12-27T13:52:53.894Z,48.64
2018-12-27T13:55:22.085Z,48.69
2018-12-27T13:57:50.314Z,48.74
2018-12-27T14:00:18.545Z,48.53
2018-12-27T14:02:46.791Z,48.54
2018-12-27T14:05:15.005Z,48.48
2018-12-27T14:07:43.242Z,48.48
2018-12-27T14:10:11.417Z,48.47
2018-12-27T14:12:39.646Z,48.35
2018-12-27T14:15:07.868Z,48.37
2018-12-27T14:17:36.079Z,48.07
2018-12-27T14:20:04.869Z,48.19
2018-12-27T14:22:33.043Z,47.97
2018-12-27T14:25:01.295Z,48.18
2018-12-27T14:27:29.526Z,48.18
2018-12-27T14:29:57.745Z,48.17
2018-12-27T14:32:26.065Z,48.21
2018-12-27T14:34:54.657Z,48.24
2018-12-27T14:37:22.913Z,48.18
2018-12-27T14:39:51.243Z,48.08
2018-12-27T14:42:19.470Z,48.08
2018-12-27T14:44:47.745Z,48.15
2018-12-27T14:47:16.058Z,48.14
2018-12-27T14:49:44.325Z,48.00
2018-12-27T14:52:12.507Z,48.15
2018-12-27T14:54:40.707Z,48.18
2018-12-27T14:57:08.941Z,48.13
2018-12-27T14:59:37.157Z,48.02
2018-12-27T15:02:05.437Z,48.20
2018-12-27T15:04:33.639Z,48.25
2018-12-27T15:07:01.842Z,47.96
2018-12-27T15:09:30.032Z,48.16
2018-12-27T15:11:58.293Z,48.12
2018-12-27T15:14:26.575Z,48.29
2018-12-27T15:16:54.779Z,48.27
2018-12-27T15:19:22.982Z,48.30
2018-12-27T15:21:51.168Z,48.27
2018-12-27T15:24:19.389Z,48.24
2018-12-27T15:26:47.654Z,48.22
2018-12-27T15:29:15.860Z,48.27
2018-12-27T15:31:44.035Z,48.27
2018-12-27T15:34:12.305Z,48.22
2018-12-27T15:36:40.499Z,48.30
2018-12-27T15:39:08.709Z,48.11
2018-12-27T15:41:36.925Z,48.23
2018-12-27T15:44:05.188Z,48.12
2018-12-27T15:46:33.447Z,48.11
2018-12-27T15:49:01.654Z,48.12
2018-12-27T15:51:29.841Z,48.07
2018-12-27T15:53:58.064Z,48.16
2018-12-27T15:56:26.238Z,48.08
2018-12-27T15:58:54.454Z,48.10
2018-12-27T16:01:22.723Z,48.27
2018-12-27T16:03:50.947Z,48.17
2018-12-27T16:06:19.112Z,48.15
2018-12-27T16:08:47.395Z,48.22
2018-12-27T16:11:15.585Z,48.23
2018-12-27T16:13:43.809Z,48.29
2018-12-27T16:16:12.052Z,48.24
2018-12-27T16:18:40.307Z,48.11
2018-12-27T16:21:08.603Z,48.24
2018-12-27T16:23:36.816Z,48.22
2018-12-27T16:26:05.018Z,48.17
2018-12-27T16:28:33.237Z,48.19
2018-12-27T16:31:01.504Z,47.99
2018-12-27T16:33:29.715Z,48.14
2018-12-27T16:35:57.908Z,47.73
2018-12-27T16:38:26.223Z,47.28
2018-12-27T16:40:54.441Z,47.41
2018-12-27T16:43:22.665Z,47.73
2018-12-27T16:45:50.892Z,48.17
2018-12-27T16:48:19.099Z,48.00
2018-12-27T16:50:47.281Z,48.00
2018-12-27T16:53:15.525Z,48.02
2018-12-27T16:55:43.762Z,48.01
2018-12-27T16:58:11.984Z,48.06
2018-12-27T17:00:40.174Z,48.08
2018-12-27T17:03:08.422Z,47.95
2018-12-27T17:05:36.654Z,47.99
2018-12-27T17:08:04.847Z,47.85
2018-12-27T17:10:33.032Z,48.04
2018-12-27T17:13:01.286Z,47.88
2018-12-27T17:15:29.566Z,47.89
2018-12-27T17:17:57.831Z,47.99
2018-12-27T17:20:26.057Z,47.91
2018-12-27T17:22:54.210Z,47.78
2018-12-27T17:25:22.401Z,47.84
2018-12-27T17:27:50.627Z,47.83
2018-12-27T17:30:19.157Z,47.87
2018-12-27T17:32:47.358Z,47.82
2018-12-27T17:35:15.577Z,47.71
2018-12-27T17:37:43.868Z,47.88
2018-12-27T17:40:12.158Z,47.69
2018-12-27T17:42:40.388Z,47.65
2018-12-27T17:45:08.626Z,47.52
2018-12-27T17:47:36.832Z,47.44
2018-12-27T17:50:05.189Z,47.31
2018-12-27T17:52:33.434Z,47.60
2018-12-27T17:55:01.654Z,47.51
2018-12-27T17:57:30.075Z,47.47
2018-12-27T17:59:58.221Z,47.49
2018-12-27T18:02:26.469Z,47.50
2018-12-27T18:04:54.718Z,47.64
2018-12-27T18:07:22.898Z,47.52
2018-12-27T18:09:51.108Z,47.61
2018-12-27T18:12:19.315Z,47.53
2018-12-27T18:14:54.494Z,47.56
2018-12-27T18:17:22.737Z,47.50
2018-12-27T18:19:50.982Z,47.50
2018-12-27T18:22:19.204Z,47.45
2018-12-27T18:24:47.407Z,47.62
2018-12-27T18:27:15.643Z,47.57
2018-12-27T18:29:43.818Z,47.59
2018-12-27T18:32:12.036Z,47.61
2018-12-27T18:34:40.222Z,47.65
2018-12-27T18:37:08.422Z,47.40
2018-12-27T18:39:36.701Z,47.44
2018-12-27T18:42:04.938Z,47.48
2018-12-27T18:44:33.104Z,47.63
2018-12-27T18:47:01.338Z,47.48
2018-12-27T18:49:29.521Z,47.46
2018-12-27T18:51:57.881Z,47.39
2018-12-27T18:54:26.153Z,47.42
2018-12-27T18:56:54.390Z,47.37
2018-12-27T18:59:22.614Z,47.38
2018-12-27T19:01:50.845Z,47.28
2018-12-27T19:04:19.030Z,47.42
2018-12-27T19:06:47.231Z,47.55
2018-12-27T19:09:15.439Z,47.71
2018-12-27T19:12:01.626Z,47.65
2018-12-27T19:14:29.839Z,47.79
2018-12-27T19:16:58.404Z,47.82
2018-12-27T19:19:26.632Z,47.62
2018-12-27T19:22:13.931Z,47.56
2018-12-27T19:24:42.174Z,47.61
2018-12-27T19:27:10.290Z,47.63
2018-12-27T19:29:38.414Z,47.47
2018-12-27T19:32:06.579Z,47.47
2018-12-27T19:34:34.735Z,47.49
2018-12-27T19:37:02.936Z,47.47
2018-12-27T19:39:31.147Z,47.37
2018-12-27T19:41:59.241Z,47.50
2018-12-27T19:44:27.395Z,47.44
2018-12-27T19:46:55.632Z,47.60
2018-12-27T19:49:23.872Z,47.48
2018-12-27T19:51:52.074Z,47.46
2018-12-27T19:54:20.225Z,47.47
2018-12-27T19:56:48.370Z,47.36
2018-12-27T19:59:16.485Z,47.13
2018-12-27T20:01:44.683Z,47.31
2018-12-27T20:04:12.925Z,47.30
2018-12-27T20:06:41.246Z,47.12
2018-12-27T20:09:11.623Z,47.20
2018-12-27T20:11:40.057Z,47.22
2018-12-27T20:14:08.520Z,47.26
2018-12-27T20:16:36.911Z,47.19
2018-12-27T20:19:05.156Z,47.26
2018-12-27T20:21:33.408Z,47.13
2018-12-27T20:24:01.723Z,47.15
2018-12-27T20:26:30.046Z,47.39
2018-12-27T20:28:58.319Z,47.18
2018-12-27T20:31:26.588Z,47.13
2018-12-27T20:33:54.900Z,47.23
2018-12-27T20:36:24.349Z,46.95
2018-12-27T20:38:52.598Z,47.09
2018-12-27T20:41:21.172Z,47.26
2018-12-27T20:43:49.551Z,47.18
2018-12-27T20:46:17.888Z,47.32
2018-12-27T20:48:46.195Z,47.32
2018-12-27T20:51:14.830Z,47.24
2018-12-27T20:53:43.114Z,47.11
2018-12-27T20:56:11.452Z,47.45
2018-12-27T20:58:39.746Z,47.71
2018-12-27T21:01:08.140Z,47.68
2018-12-27T21:03:36.417Z,47.28
2018-12-27T21:06:04.956Z,47.75
2018-12-27T21:08:33.210Z,47.77
2018-12-27T21:11:01.503Z,47.80
2018-12-27T21:13:29.796Z,47.53
2018-12-27T21:15:58.102Z,47.75
2018-12-27T21:18:26.344Z,47.48
2018-12-27T21:20:54.666Z,47.48
2018-12-27T21:23:22.910Z,47.54
2018-12-27T21:25:51.299Z,47.52
2018-12-27T21:28:19.590Z,47.45
2018-12-27T21:30:47.903Z,47.39
2018-12-27T21:33:16.202Z,47.28
2018-12-27T21:35:44.543Z,47.32
2018-12-27T21:38:12.842Z,47.48
2018-12-27T21:40:41.077Z,47.33
2018-12-27T21:43:09.329Z,47.24
2018-12-27T21:45:37.686Z,47.18
2018-12-27T21:48:06.071Z,47.14
2018-12-27T21:50:34.412Z,47.11
2018-12-27T21:53:02.700Z,47.22
2018-12-27T21:55:31.017Z,47.23
2018-12-27T21:57:59.383Z,47.34
2018-12-27T22:00:27.641Z,47.30
2018-12-27T22:02:55.950Z,47.21
2018-12-27T22:05:24.223Z,47.14
2018-12-27T22:07:52.443Z,47.17
2018-12-27T22:10:20.725Z,47.17
2018-12-27T22:12:48.906Z,46.42
2018-12-27T22:15:17.196Z,46.31
2018-12-27T22:17:45.563Z,46.19
2018-12-27T22:20:13.830Z,46.96
2018-12-27T22:22:42.025Z,47.02
2018-12-27T22:25:10.431Z,46.88
2018-12-27T22:27:38.854Z,46.69
2018-12-27T22:30:08.600Z,46.97
2018-12-27T22:32:36.749Z,47.11
2018-12-27T22:35:05.042Z,47.13
2018-12-27T22:37:33.226Z,47.31
2018-12-27T22:40:01.443Z,47.54
2018-12-27T22:42:29.714Z,47.42
2018-12-27T22:44:57.911Z,47.38
2018-12-27T22:47:26.159Z,47.50
2018-12-27T22:49:54.617Z,47.65
2018-12-27T22:52:22.770Z,47.85
2018-12-27T22:54:50.995Z,47.78
2018-12-27T22:57:19.538Z,47.67
2018-12-27T22:59:47.823Z,47.97
2018-12-27T23:02:16.095Z,47.89
2018-12-27T23:04:44.274Z,47.82
2018-12-27T23:07:12.538Z,47.76
2018-12-27T23:09:40.747Z,47.83
2018-12-27T23:12:08.979Z,47.90
2018-12-27T23:14:37.160Z,48.09
2018-12-27T23:17:05.310Z,47.91
2018-12-27T23:19:33.511Z,47.54
2018-12-27T23:22:01.682Z,47.51
2018-12-27T23:24:29.879Z,47.88
2018-12-27T23:26:58.086Z,47.84
2018-12-27T23:29:26.306Z,48.25
2018-12-27T23:31:54.483Z,48.18
2018-12-27T23:34:22.664Z,47.96
2018-12-27T23:36:50.815Z,48.01
2018-12-27T23:39:19.006Z,48.32
2018-12-27T23:41:47.253Z,48.21
2018-12-27T23:44:15.558Z,47.90
2018-12-27T23:46:43.703Z,48.37
2018-12-27T23:49:11.989Z,48.47
2018-12-27T23:51:40.176Z,48.44
2018-12-27T23:54:08.340Z,48.50
2018-12-27T23:56:36.553Z,48.33
2018-12-27T23:59:04.784Z,48.29
